createdAt,value
2019-02-27T00:00:16.558Z,100336.03
2019-02-27T00:02:47.503Z,100331.31
2019-02-27T00:05:17.999Z,100331.84
2019-02-27T00:07:48.515Z,100333.07
2019-02-27T00:10:19.574Z,100333.45
2019-02-27T00:12:52.522Z,100329.22
2019-02-27T00:15:23.635Z,100331.80
2019-02-27T00:17:54.029Z,100337.84
2019-02-27T00:20:25.393Z,100326.16
2019-02-27T00:22:55.995Z,100333.47
2019-02-27T00:25:26.825Z,100335.27
2019-02-27T00:27:57.385Z,100321.97
2019-02-27T00:30:27.789Z,100325.19
2019-02-27T00:32:58.540Z,100319.44
2019-02-27T00:35:29.095Z,100328.77
2019-02-27T00:37:59.502Z,100331.10
2019-02-27T00:40:29.817Z,100325.22
2019-02-27T00:43:00.479Z,100324.94
2019-02-27T00:45:31.072Z,100315.23
2019-02-27T00:48:01.843Z,100323.58
2019-02-27T00:50:32.685Z,100319.11
2019-02-27T00:53:03.261Z,100311.31
2019-02-27T00:55:38.603Z,100318.14
2019-02-27T00:58:05.782Z,100314.55
2019-02-27T01:00:38.939Z,100306.17
2019-02-27T01:03:08.533Z,100309.79
2019-02-27T01:05:41.131Z,100310.16
2019-02-27T01:08:11.239Z,100315.80
2019-02-27T01:10:42.905Z,100309.02
2019-02-27T01:13:14.257Z,100313.17
2019-02-27T01:15:44.880Z,100304.89
2019-02-27T01:18:16.526Z,100293.14
2019-02-27T01:20:47.048Z,100297.02
2019-02-27T01:23:17.887Z,100300.14
2019-02-27T01:25:49.618Z,100302.39
2019-02-27T01:28:20.142Z,100304.59
2019-02-27T01:30:50.911Z,100296.38
2019-02-27T01:33:21.585Z,100293.34
2019-02-27T01:35:52.394Z,100302.89
2019-02-27T01:38:23.986Z,100302.08
2019-02-27T01:40:54.879Z,100301.95
2019-02-27T01:43:25.398Z,100303.61
2019-02-27T01:45:57.110Z,100292.62
2019-02-27T01:48:27.446Z,100300.13
2019-02-27T01:50:58.254Z,100302.84
2019-02-27T01:53:28.768Z,100298.19
2019-02-27T01:55:59.713Z,100298.97
2019-02-27T01:58:30.716Z,100291.84
2019-02-27T02:01:01.556Z,100305.36
2019-02-27T02:03:33.299Z,100302.94
2019-02-27T02:06:04.324Z,100301.78
2019-02-27T02:08:35.540Z,100301.21
2019-02-27T02:11:06.414Z,100303.70
2019-02-27T02:13:48.900Z,100309.53
2019-02-27T02:16:47.632Z,100311.23
2019-02-27T02:20:13.058Z,100310.38
2019-02-27T02:23:26.675Z,100310.69
2019-02-27T02:26:35.007Z,100309.02
2019-02-27T02:29:41.591Z,100304.64
2019-02-27T02:32:18.628Z,100306.44
2019-02-27T02:35:18.727Z,100318.06
2019-02-27T02:38:26.387Z,100319.07
2019-02-27T02:41:46.725Z,100316.11
2019-02-27T02:44:57.124Z,100327.33
2019-02-27T02:48:11.303Z,100321.91
2019-02-27T02:51:28.663Z,100330.30
2019-02-27T02:54:37.522Z,100345.91
2019-02-27T02:57:35.835Z,100343.06
2019-02-27T03:00:48.665Z,100342.40
2019-02-27T03:03:45.007Z,100347.09
2019-02-27T03:06:52.994Z,100352.48
2019-02-27T03:09:52.104Z,100364.83
2019-02-27T03:13:07.230Z,100365.88
2019-02-27T03:16:10.891Z,100367.64
2019-02-27T03:19:14.864Z,100374.51
2019-02-27T03:22:31.785Z,100374.98
2019-02-27T03:25:27.560Z,100381.89
2019-02-27T03:28:29.768Z,100380.22
2019-02-27T03:31:19.314Z,100380.94
2019-02-27T03:34:11.595Z,100371.12
2019-02-27T03:37:18.409Z,100386.28
2019-02-27T03:40:23.149Z,100379.95
2019-02-27T03:43:25.741Z,100365.42
2019-02-27T03:46:27.658Z,100366.16
2019-02-27T03:49:20.018Z,100378.98
2019-02-27T03:52:36.475Z,100381.34
2019-02-27T03:55:31.835Z,100390.84
2019-02-27T03:58:30.586Z,100401.96
2019-02-27T04:01:40.399Z,100384.58
2019-02-27T04:04:53.960Z,100390.15
2019-02-27T04:07:54.946Z,100394.78
2019-02-27T04:10:30.959Z,100393.59
2019-02-27T04:12:58.090Z,100393.55
2019-02-27T04:15:29.013Z,100387.68
2019-02-27T04:17:57.003Z,100395.14
2019-02-27T04:20:27.529Z,100404.32
2019-02-27T04:22:58.057Z,100404.43
2019-02-27T04:25:31.014Z,100408.46
2019-02-27T04:28:00.742Z,100406.30
2019-02-27T04:30:33.886Z,100409.26
2019-02-27T04:33:04.445Z,100413.02
2019-02-27T04:35:39.282Z,100414.25
2019-02-27T04:38:08.217Z,100416.97
2019-02-27T04:40:38.706Z,100411.92
2019-02-27T04:43:09.321Z,100419.16
2019-02-27T04:45:40.940Z,100418.56
2019-02-27T04:48:11.545Z,100396.89
2019-02-27T04:50:44.172Z,100429.45
2019-02-27T04:53:14.173Z,100431.62
2019-02-27T04:55:44.796Z,100426.95
2019-02-27T04:58:16.678Z,100417.45
2019-02-27T05:00:47.305Z,100425.59
2019-02-27T05:03:17.913Z,100428.61
2019-02-27T05:05:48.593Z,100429.00
2019-02-27T05:08:19.616Z,100425.92
2019-02-27T05:10:50.007Z,100434.23
2019-02-27T05:13:22.063Z,100443.09
2019-02-27T05:15:53.338Z,100439.86
2019-02-27T05:18:23.835Z,100453.27
2019-02-27T05:20:54.323Z,100450.38
2019-02-27T05:23:24.837Z,100452.91
2019-02-27T05:25:55.352Z,100454.33
2019-02-27T05:28:25.916Z,100465.67
2019-02-27T05:30:56.549Z,100458.61
2019-02-27T05:33:28.266Z,100471.03
2019-02-27T05:35:58.615Z,100471.34
2019-02-27T05:38:29.218Z,100479.89
2019-02-27T05:41:00.014Z,100487.99
2019-02-27T05:43:31.193Z,100486.34
2019-02-27T05:46:03.176Z,100482.03
2019-02-27T05:48:34.951Z,100493.70
2019-02-27T05:51:07.690Z,100489.16
2019-02-27T05:53:37.942Z,100487.25
2019-02-27T05:56:08.608Z,100493.76
2019-02-27T05:58:39.521Z,100510.47
2019-02-27T06:01:10.151Z,100499.22
2019-02-27T06:03:40.817Z,100507.52
2019-02-27T06:06:12.368Z,100512.78
2019-02-27T06:08:43.134Z,100519.56
2019-02-27T06:11:14.611Z,100529.14
2019-02-27T06:13:47.603Z,100527.84
2019-02-27T06:16:19.423Z,100534.66
2019-02-27T06:18:50.058Z,100537.73
2019-02-27T06:21:22.943Z,100532.41
2019-02-27T06:23:54.873Z,100527.95
2019-02-27T06:26:25.449Z,100535.48
2019-02-27T06:28:58.159Z,100534.19
2019-02-27T06:31:28.774Z,100533.00
2019-02-27T06:33:59.160Z,100539.70
2019-02-27T06:36:29.727Z,100541.33
2019-02-27T06:39:01.711Z,100544.64
2019-02-27T06:41:33.574Z,100533.17
2019-02-27T06:44:04.010Z,100535.33
2019-02-27T06:46:34.369Z,100532.78
2019-02-27T06:49:04.994Z,100549.53
2019-02-27T06:51:36.484Z,100553.73
2019-02-27T06:54:07.062Z,100555.32
2019-02-27T06:56:38.020Z,100553.68
2019-02-27T06:59:08.763Z,100557.25
2019-02-27T07:01:39.396Z,100562.53
2019-02-27T07:04:11.221Z,100553.85
2019-02-27T07:06:43.251Z,100566.59
2019-02-27T07:09:13.646Z,100568.13
2019-02-27T07:11:46.221Z,100567.50
2019-02-27T07:14:16.671Z,100557.99
2019-02-27T07:16:47.264Z,100563.77
2019-02-27T07:19:17.831Z,100558.47
2019-02-27T07:21:48.770Z,100554.40
2019-02-27T07:24:19.209Z,100566.33
2019-02-27T07:26:50.758Z,100569.75
2019-02-27T07:29:27.047Z,100579.09
2019-02-27T07:31:54.096Z,100586.91
2019-02-27T07:34:25.732Z,100590.09
2019-02-27T07:36:57.364Z,100588.36
2019-02-27T07:39:27.826Z,100600.53
2019-02-27T07:41:58.526Z,100586.14
2019-02-27T07:44:29.222Z,100592.96
2019-02-27T07:46:59.751Z,100587.22
2019-02-27T07:49:30.947Z,100581.81
2019-02-27T07:52:01.957Z,100588.98
2019-02-27T07:54:33.644Z,100595.12
2019-02-27T07:57:04.055Z,100592.59
2019-02-27T07:59:37.947Z,100600.23
2019-02-27T08:02:06.518Z,100615.05
2019-02-27T08:04:37.106Z,100597.70
2019-02-27T08:07:10.037Z,100619.64
2019-02-27T08:09:40.722Z,100610.44
2019-02-27T08:12:11.587Z,100634.45
2019-02-27T08:14:42.703Z,100615.64
2019-02-27T08:17:17.665Z,100644.77
2019-02-27T08:19:46.118Z,100624.92
2019-02-27T08:22:16.741Z,100628.04
2019-02-27T08:24:47.178Z,100620.28
2019-02-27T08:27:18.904Z,100605.02
2019-02-27T08:29:49.473Z,100627.03
2019-02-27T08:32:20.014Z,100617.50
2019-02-27T08:34:50.610Z,100620.86
2019-02-27T08:37:21.466Z,100619.84
2019-02-27T08:39:52.043Z,100617.63
2019-02-27T08:42:22.702Z,100638.08
2019-02-27T08:44:53.497Z,100621.78
2019-02-27T08:47:24.112Z,100613.11
2019-02-27T08:49:57.659Z,100628.33
2019-02-27T08:52:27.186Z,100616.72
2019-02-27T08:54:57.642Z,100622.69
2019-02-27T08:57:29.682Z,100652.03
2019-02-27T09:00:00.464Z,100627.42
2019-02-27T09:02:30.892Z,100612.84
2019-02-27T09:05:01.697Z,100625.27
2019-02-27T09:07:33.936Z,100628.78
2019-02-27T09:10:05.130Z,100634.33
2019-02-27T09:12:37.676Z,100622.09
2019-02-27T09:15:08.804Z,100631.84
2019-02-27T09:17:42.024Z,100638.13
2019-02-27T09:20:13.759Z,100635.73
2019-02-27T09:22:44.531Z,100631.30
2019-02-27T09:25:15.460Z,100617.41
2019-02-27T09:27:48.162Z,100642.52
2019-02-27T09:30:18.597Z,100643.34
2019-02-27T09:32:49.378Z,100628.34
2019-02-27T09:35:20.091Z,100629.83
2019-02-27T09:37:51.206Z,100639.64
2019-02-27T09:40:22.822Z,100643.52
2019-02-27T09:42:53.916Z,100631.75
2019-02-27T09:45:30.378Z,100638.50
2019-02-27T09:48:01.412Z,100646.33
2019-02-27T09:50:37.557Z,100656.11
2019-02-27T09:53:08.230Z,100646.39
2019-02-27T09:55:38.747Z,100646.63
2019-02-27T09:58:11.551Z,100654.14
2019-02-27T10:00:50.139Z,100646.43
2019-02-27T10:03:21.626Z,100651.31
2019-02-27T10:05:52.199Z,100660.95
2019-02-27T10:08:25.402Z,100645.26
2019-02-27T10:10:55.709Z,100648.83
2019-02-27T10:13:26.383Z,100640.28
2019-02-27T10:16:00.555Z,100645.87
2019-02-27T10:18:29.620Z,100639.50
2019-02-27T10:21:00.407Z,100644.57
2019-02-27T10:23:31.384Z,100653.89
2019-02-27T10:26:01.820Z,100628.48
2019-02-27T10:28:32.325Z,100630.97
2019-02-27T10:31:03.330Z,100622.91
2019-02-27T10:33:33.745Z,100623.62
2019-02-27T10:36:04.377Z,100613.09
2019-02-27T10:38:40.246Z,100633.66
2019-02-27T10:41:07.875Z,100640.63
2019-02-27T10:43:38.525Z,100653.92
2019-02-27T10:46:09.260Z,100633.76
2019-02-27T10:48:39.897Z,100630.02
2019-02-27T10:51:10.504Z,100616.22
2019-02-27T10:53:41.431Z,100629.57
2019-02-27T10:56:12.176Z,100625.30
2019-02-27T10:58:45.029Z,100611.19
2019-02-27T11:01:15.079Z,100615.52
2019-02-27T11:03:45.735Z,100629.27
2019-02-27T11:06:17.660Z,100619.97
2019-02-27T11:08:48.286Z,100608.15
2019-02-27T11:11:19.059Z,100618.56
2019-02-27T11:13:51.730Z,100616.66
2019-02-27T11:16:23.814Z,100621.59
2019-02-27T11:18:55.700Z,100612.26
2019-02-27T11:21:28.239Z,100614.14
2019-02-27T11:23:58.718Z,100621.10
2019-02-27T11:26:32.958Z,100619.55
2019-02-27T11:29:01.676Z,100622.25
2019-02-27T11:31:32.581Z,100628.97
2019-02-27T11:34:05.076Z,100618.67
2019-02-27T11:36:39.024Z,100615.84
2019-02-27T11:39:09.557Z,100618.70
2019-02-27T11:41:40.131Z,100630.09
2019-02-27T11:44:13.941Z,100652.05
2019-02-27T11:46:44.021Z,100631.97
2019-02-27T11:49:14.936Z,100638.47
2019-02-27T11:51:46.163Z,100646.05
2019-02-27T11:54:16.914Z,100646.80
2019-02-27T11:56:47.621Z,100654.72
2019-02-27T11:59:18.403Z,100640.67
2019-02-27T12:01:49.284Z,100649.30
2019-02-27T12:04:20.101Z,100658.02
2019-02-27T12:06:50.756Z,100651.82
2019-02-27T12:09:21.494Z,100650.19
2019-02-27T12:11:52.124Z,100654.59
2019-02-27T12:14:22.566Z,100655.51
2019-02-27T12:16:54.420Z,100661.17
2019-02-27T12:19:24.974Z,100659.02
2019-02-27T12:21:59.329Z,100659.59
2019-02-27T12:24:27.973Z,100666.34
2019-02-27T12:26:58.369Z,100658.23
2019-02-27T12:29:28.982Z,100665.50
2019-02-27T12:31:59.506Z,100673.91
2019-02-27T12:34:30.107Z,100681.94
2019-02-27T12:37:00.737Z,100664.69
2019-02-27T12:39:31.378Z,100675.81
2019-02-27T12:42:04.166Z,100684.55
2019-02-27T12:44:34.579Z,100684.02
2019-02-27T12:47:05.740Z,100680.45
2019-02-27T12:49:37.409Z,100687.27
2019-02-27T12:52:08.992Z,100686.61
2019-02-27T12:54:40.911Z,100695.66
2019-02-27T12:57:11.425Z,100696.11
2019-02-27T12:59:42.122Z,100672.09
2019-02-27T13:02:12.591Z,100681.08
2019-02-27T13:04:43.277Z,100679.35
2019-02-27T13:07:14.171Z,100678.38
2019-02-27T13:09:44.701Z,100671.17
2019-02-27T13:12:17.380Z,100679.03
2019-02-27T13:14:47.545Z,100684.80
2019-02-27T13:17:18.379Z,100679.41
2019-02-27T13:19:49.003Z,100682.59
2019-02-27T13:22:19.905Z,100672.67
2019-02-27T13:24:50.943Z,100679.73
2019-02-27T13:27:21.520Z,100688.08
2019-02-27T13:29:55.260Z,100686.28
2019-02-27T13:32:27.298Z,100695.61
2019-02-27T13:34:57.202Z,100686.39
2019-02-27T13:37:27.699Z,100688.13
2019-02-27T13:40:00.415Z,100684.39
2019-02-27T13:42:31.175Z,100690.87
2019-02-27T13:45:01.687Z,100703.62
2019-02-27T13:47:32.274Z,100690.42
2019-02-27T13:50:02.960Z,100687.66
2019-02-27T13:52:33.674Z,100682.33
2019-02-27T13:55:04.820Z,100690.23
2019-02-27T13:57:36.223Z,100691.52
2019-02-27T14:00:08.202Z,100697.22
2019-02-27T14:02:39.635Z,100703.31
2019-02-27T14:05:10.847Z,100699.34
2019-02-27T14:07:41.044Z,100692.14
2019-02-27T14:10:16.903Z,100697.26
2019-02-27T14:12:44.386Z,100688.39
2019-02-27T14:15:15.641Z,100694.73
2019-02-27T14:17:46.348Z,100696.60
2019-02-27T14:20:18.441Z,100699.78
2019-02-27T14:22:49.163Z,100699.10
2019-02-27T14:25:21.847Z,100699.77
2019-02-27T14:27:52.819Z,100701.19
2019-02-27T14:30:26.071Z,100706.55
2019-02-27T14:32:56.537Z,100706.30
2019-02-27T14:35:27.129Z,100734.40
2019-02-27T14:37:57.710Z,100698.91
2019-02-27T14:40:29.720Z,100710.06
2019-02-27T14:43:00.316Z,100702.14
2019-02-27T14:45:30.847Z,100711.06
2019-02-27T14:48:01.808Z,100711.31
2019-02-27T14:50:34.498Z,100717.88
2019-02-27T14:53:04.723Z,100707.15
2019-02-27T14:55:37.278Z,100701.30
2019-02-27T14:58:07.812Z,100695.19
2019-02-27T15:00:40.858Z,100708.28
2019-02-27T15:03:11.467Z,100712.36
2019-02-27T15:05:44.721Z,100714.70
2019-02-27T15:08:14.176Z,100719.94
2019-02-27T15:10:44.833Z,100720.53
2019-02-27T15:13:15.485Z,100711.75
2019-02-27T15:15:46.080Z,100720.42
2019-02-27T15:18:16.711Z,100721.09
2019-02-27T15:20:47.055Z,100723.21
2019-02-27T15:23:17.603Z,100710.95
2019-02-27T15:25:49.436Z,100719.51
2019-02-27T15:28:20.251Z,100722.83
2019-02-27T15:30:50.862Z,100723.21
2019-02-27T15:33:21.455Z,100729.73
2019-02-27T15:35:55.049Z,100739.81
2019-02-27T15:38:24.610Z,100734.17
2019-02-27T15:40:55.369Z,100742.14
2019-02-27T15:43:26.494Z,100739.23
2019-02-27T15:45:57.106Z,100735.00
2019-02-27T15:48:27.390Z,100733.44
2019-02-27T15:50:57.732Z,100741.73
2019-02-27T15:53:28.473Z,100742.23
2019-02-27T15:55:58.930Z,100746.61
2019-02-27T15:58:31.056Z,100743.88
2019-02-27T16:01:02.124Z,100743.41
2019-02-27T16:03:33.089Z,100745.25
2019-02-27T16:06:05.591Z,100755.95
2019-02-27T16:08:36.365Z,100745.88
2019-02-27T16:11:07.208Z,100737.75
2019-02-27T16:13:39.170Z,100714.00
2019-02-27T16:16:09.799Z,100731.90
2019-02-27T16:18:40.696Z,100741.49
2019-02-27T16:21:12.177Z,100735.80
2019-02-27T16:23:43.050Z,100749.63
2019-02-27T16:26:13.780Z,100733.44
2019-02-27T16:28:46.062Z,100725.22
2019-02-27T16:31:17.672Z,100732.97
2019-02-27T16:33:48.540Z,100750.72
2019-02-27T16:36:20.507Z,100756.69
2019-02-27T16:38:51.422Z,100756.88
2019-02-27T16:41:27.888Z,100756.16
2019-02-27T16:43:55.451Z,100757.29
2019-02-27T16:46:27.172Z,100752.62
2019-02-27T16:48:57.698Z,100751.87
2019-02-27T16:51:31.227Z,100763.55
2019-02-27T16:54:04.238Z,100755.41
2019-02-27T16:56:36.282Z,100761.56
2019-02-27T16:59:08.603Z,100770.11
2019-02-27T17:01:39.921Z,100773.39
2019-02-27T17:04:11.427Z,100781.62
2019-02-27T17:06:42.111Z,100776.08
2019-02-27T17:09:13.346Z,100775.38
2019-02-27T17:11:44.304Z,100778.02
2019-02-27T17:14:14.911Z,100777.21
2019-02-27T17:16:45.872Z,100788.41
2019-02-27T17:19:16.643Z,100794.48
2019-02-27T17:21:47.495Z,100786.14
2019-02-27T17:24:21.914Z,100778.50
2019-02-27T17:26:50.656Z,100781.58
2019-02-27T17:29:22.862Z,100772.48
2019-02-27T17:31:55.667Z,100777.00
2019-02-27T17:34:28.123Z,100775.81
2019-02-27T17:36:58.922Z,100777.34
2019-02-27T17:39:30.692Z,100778.23
2019-02-27T17:42:01.748Z,100793.34
2019-02-27T17:44:35.318Z,100793.88
2019-02-27T17:47:08.100Z,100783.41
2019-02-27T17:49:39.197Z,100784.70
2019-02-27T17:52:11.481Z,100784.48
2019-02-27T17:54:42.555Z,100781.36
2019-02-27T17:57:13.694Z,100775.27
2019-02-27T17:59:46.102Z,100784.58
2019-02-27T18:02:17.116Z,100766.08
2019-02-27T18:04:51.942Z,100769.52
2019-02-27T18:07:21.007Z,100773.88
2019-02-27T18:09:51.638Z,100765.53
2019-02-27T18:12:26.794Z,100768.21
2019-02-27T18:14:54.987Z,100773.27
2019-02-27T18:17:25.598Z,100765.63
2019-02-27T18:19:56.230Z,100770.17
2019-02-27T18:22:28.463Z,100767.70
2019-02-27T18:25:00.351Z,100772.16
2019-02-27T18:27:31.399Z,100768.94
2019-02-27T18:30:02.336Z,100772.75
2019-02-27T18:32:33.162Z,100767.06
2019-02-27T18:35:04.878Z,100771.84
2019-02-27T18:37:35.716Z,100771.41
2019-02-27T18:40:08.371Z,100775.17
2019-02-27T18:42:39.678Z,100771.69
2019-02-27T18:45:15.001Z,100778.73
2019-02-27T18:47:46.279Z,100772.81
2019-02-27T18:50:17.298Z,100779.05
2019-02-27T18:52:48.416Z,100769.10
2019-02-27T18:55:21.000Z,100770.66
2019-02-27T18:57:54.327Z,100775.06
2019-02-27T19:00:25.274Z,100775.38
2019-02-27T19:02:56.262Z,100772.97
2019-02-27T19:05:27.181Z,100771.24
2019-02-27T19:07:58.253Z,100773.62
2019-02-27T19:10:30.281Z,100776.67
2019-02-27T19:13:01.174Z,100773.94
2019-02-27T19:15:32.403Z,100776.26
2019-02-27T19:18:03.759Z,100774.47
2019-02-27T19:20:36.333Z,100763.84
2019-02-27T19:23:07.364Z,100763.84
2019-02-27T19:25:38.378Z,100762.91
2019-02-27T19:28:09.429Z,100764.30
2019-02-27T19:30:41.846Z,100763.02
2019-02-27T19:33:13.268Z,100767.33
2019-02-27T19:35:44.195Z,100764.80
2019-02-27T19:38:14.943Z,100770.22
2019-02-27T19:40:45.947Z,100764.89
2019-02-27T19:43:21.165Z,100768.61
2019-02-27T19:45:51.063Z,100769.80
2019-02-27T19:48:21.744Z,100765.74
2019-02-27T19:50:52.901Z,100760.96
2019-02-27T19:53:23.764Z,100759.88
2019-02-27T19:55:54.652Z,100758.59
2019-02-27T19:58:25.550Z,100761.17
2019-02-27T20:00:56.234Z,100762.75
2019-02-27T20:03:29.268Z,100763.93
2019-02-27T20:05:59.565Z,100768.61
2019-02-27T20:08:30.481Z,100760.36
2019-02-27T20:11:02.342Z,100758.16
2019-02-27T20:13:34.002Z,100754.23
2019-02-27T20:16:04.792Z,100758.03
2019-02-27T20:18:35.644Z,100755.14
2019-02-27T20:21:06.672Z,100752.67
2019-02-27T20:23:38.495Z,100748.91
2019-02-27T20:26:14.036Z,100742.99
2019-02-27T20:28:42.962Z,100745.97
2019-02-27T20:31:17.952Z,100742.75
2019-02-27T20:33:46.438Z,100740.31
2019-02-27T20:36:17.198Z,100741.02
2019-02-27T20:38:50.854Z,100738.92
2019-02-27T20:41:21.952Z,100734.73
2019-02-27T20:43:52.607Z,100734.56
2019-02-27T20:46:24.560Z,100732.09
2019-02-27T20:48:55.867Z,100734.51
2019-02-27T20:51:27.658Z,100734.15
2019-02-27T20:53:58.281Z,100738.92
2019-02-27T20:56:28.954Z,100743.05
2019-02-27T20:59:24.646Z,100737.25
2019-02-27T21:01:52.336Z,100736.34
2019-02-27T21:04:23.215Z,100735.65
2019-02-27T21:06:53.864Z,100736.39
2019-02-27T21:09:24.935Z,100733.17
2019-02-27T21:11:56.973Z,100735.37
2019-02-27T21:14:30.869Z,100728.94
2019-02-27T21:17:01.524Z,100730.48
2019-02-27T21:19:33.881Z,100732.68
2019-02-27T21:22:05.094Z,100730.84
2019-02-27T21:24:37.393Z,100722.63
2019-02-27T21:27:08.022Z,100721.93
2019-02-27T21:29:40.246Z,100723.64
2019-02-27T21:32:11.606Z,100716.82
2019-02-27T21:34:42.317Z,100712.13
2019-02-27T21:37:13.102Z,100710.47
2019-02-27T21:39:43.643Z,100708.48
2019-02-27T21:42:18.464Z,100699.17
2019-02-27T21:44:47.326Z,100703.77
2019-02-27T21:47:18.448Z,100708.59
2019-02-27T21:49:49.741Z,100694.66
2019-02-27T21:52:22.391Z,100693.42
2019-02-27T21:54:53.266Z,100686.34
2019-02-27T21:57:25.573Z,100688.59
2019-02-27T21:59:57.139Z,100691.61
2019-02-27T22:02:30.067Z,100686.12
2019-02-27T22:05:01.301Z,100687.41
2019-02-27T22:07:33.406Z,100677.36
2019-02-27T22:10:05.128Z,100678.70
2019-02-27T22:12:36.075Z,100672.02
2019-02-27T22:15:09.028Z,100676.77
2019-02-27T22:17:39.891Z,100684.52
2019-02-27T22:20:10.657Z,100685.91
2019-02-27T22:22:42.682Z,100685.47
2019-02-27T22:25:13.672Z,100690.84
2019-02-27T22:27:46.049Z,100680.45
2019-02-27T22:30:18.663Z,100682.08
2019-02-27T22:32:49.880Z,100680.45
2019-02-27T22:35:21.054Z,100675.95
2019-02-27T22:37:52.973Z,100677.23
2019-02-27T22:40:25.082Z,100674.60
2019-02-27T22:42:56.234Z,100669.02
2019-02-27T22:45:27.010Z,100665.05
2019-02-27T22:47:57.796Z,100665.36
2019-02-27T22:50:28.706Z,100671.60
2019-02-27T22:53:01.096Z,100659.17
2019-02-27T22:55:31.812Z,100658.48
2019-02-27T22:58:02.535Z,100657.30
2019-02-27T23:00:51.731Z,100660.19
2019-02-27T23:03:24.484Z,100659.11
2019-02-27T23:05:55.340Z,100653.15
2019-02-27T23:08:26.010Z,100652.84
2019-02-27T23:10:58.828Z,100650.68
2019-02-27T23:13:29.712Z,100647.61
2019-02-27T23:16:00.311Z,100640.52
2019-02-27T23:18:31.376Z,100643.38
2019-02-27T23:21:02.012Z,100644.41
2019-02-27T23:23:33.380Z,100646.50
2019-02-27T23:26:05.227Z,100648.64
2019-02-27T23:28:36.554Z,100643.73
2019-02-27T23:31:08.438Z,100644.97
2019-02-27T23:33:41.739Z,100640.14
2019-02-27T23:36:12.808Z,100642.11
2019-02-27T23:38:43.697Z,100628.83
2019-02-27T23:41:14.294Z,100638.19
2019-02-27T23:43:45.037Z,100636.52
2019-02-27T23:46:18.591Z,100637.39
2019-02-27T23:48:48.367Z,100640.80
2019-02-27T23:51:18.990Z,100637.94
2019-02-27T23:53:49.633Z,100636.98
2019-02-27T23:56:20.707Z,100637.47
2019-02-27T23:58:53.584Z,100635.30
